sensor_id;sensor_type;location;lat;lon;timestamp;pressure;altitude;pressure_sealevel;temperature;humidity
12486;BME280;6307;46.804;11.580;2022-07-30T00:00:59;-21359.13;;;16.89;100.00
12486;BME280;6307;46.804;11.580;2022-07-30T00:03:25;-21356.13;;;16.79;100.00
12486;BME280;6307;46.804;11.580;2022-07-30T00:05:52;-21360.16;;;16.93;100.00
12486;BME280;6307;46.804;11.580;2022-07-30T00:08:19;-21355.97;;;16.79;100.00
12486;BME280;6307;46.804;11.580;2022-07-30T00:10:47;-21355.53;;;16.77;100.00
12486;BME280;6307;46.804;11.580;2022-07-30T00:13:14;-21349.72;;;16.58;100.00
12486;BME280;6307;46.804;11.580;2022-07-30T00:15:40;-21351.81;;;16.65;100.00
12486;BME280;6307;46.804;11.580;2022-07-30T00:18:06;-21356.56;;;16.81;100.00
12486;BME280;6307;46.804;11.580;2022-07-30T00:20:32;-21358.97;;;16.89;100.00
12486;BME280;6307;46.804;11.580;2022-07-30T00:23:02;-21358.81;;;16.88;100.00
12486;BME280;6307;46.804;11.580;2022-07-30T00:25:29;-21360.59;;;16.94;100.00
12486;BME280;6307;46.804;11.580;2022-07-30T00:27:55;-21354.94;;;16.75;100.00
12486;BME280;6307;46.804;11.580;2022-07-30T00:30:21;-21356.28;;;16.80;100.00
12486;BME280;6307;46.804;11.580;2022-07-30T00:32:48;-21351.94;;;16.65;100.00
12486;BME280;6307;46.804;11.580;2022-07-30T00:35:14;-21352.41;;;16.67;100.00
12486;BME280;6307;46.804;11.580;2022-07-30T00:37:41;-21353.00;;;16.69;100.00
12486;BME280;6307;46.804;11.580;2022-07-30T00:40:07;-21349.72;;;16.58;100.00
12486;BME280;6307;46.804;11.580;2022-07-30T00:42:38;-21347.19;;;16.49;100.00
12486;BME280;6307;46.804;11.580;2022-07-30T00:45:09;-21344.34;;;16.40;100.00
12486;BME280;6307;46.804;11.580;2022-07-30T00:47:37;-21343.44;;;16.37;100.00
12486;BME280;6307;46.804;11.580;2022-07-30T00:50:05;-21346.28;;;16.46;100.00
12486;BME280;6307;46.804;11.580;2022-07-30T00:52:35;-21342.84;;;16.35;100.00
12486;BME280;6307;46.804;11.580;2022-07-30T00:55:04;-21344.66;;;16.41;100.00
12486;BME280;6307;46.804;11.580;2022-07-30T00:57:31;-21342.56;;;16.34;100.00
12486;BME280;6307;46.804;11.580;2022-07-30T00:59:57;-21346.72;;;16.48;100.00
12486;BME280;6307;46.804;11.580;2022-07-30T01:02:23;-21343.75;;;16.38;100.00
12486;BME280;6307;46.804;11.580;2022-07-30T01:04:49;-21346.72;;;16.48;100.00
12486;BME280;6307;46.804;11.580;2022-07-30T01:07:16;-21344.50;;;16.40;100.00
12486;BME280;6307;46.804;11.580;2022-07-30T01:09:42;-21344.06;;;16.39;100.00
12486;BME280;6307;46.804;11.580;2022-07-30T01:12:09;-21339.88;;;16.25;100.00
12486;BME280;6307;46.804;11.580;2022-07-30T01:14:38;-21343.75;;;16.38;100.00
12486;BME280;6307;46.804;11.580;2022-07-30T01:17:04;-21342.84;;;16.35;100.00
12486;BME280;6307;46.804;11.580;2022-07-30T01:19:36;-21339.88;;;16.25;100.00
12486;BME280;6307;46.804;11.580;2022-07-30T01:28:03;-21338.06;;;16.19;100.00
12486;BME280;6307;46.804;11.580;2022-07-30T01:30:42;-21340.00;;;16.25;100.00
12486;BME280;6307;46.804;11.580;2022-07-30T01:33:12;-21339.56;;;16.24;100.00
12486;BME280;6307;46.804;11.580;2022-07-30T01:35:42;-21336.56;;;16.14;100.00
12486;BME280;6307;46.804;11.580;2022-07-30T01:38:12;-21334.78;;;16.08;100.00
12486;BME280;6307;46.804;11.580;2022-07-30T01:40:41;-21333.16;;;16.02;100.00
12486;BME280;6307;46.804;11.580;2022-07-30T01:43:09;-21332.41;;;16.00;100.00
12486;BME280;6307;46.804;11.580;2022-07-30T01:45:37;-21330.75;;;15.95;100.00
12486;BME280;6307;46.804;11.580;2022-07-30T01:48:07;-21332.25;;;16.00;100.00
12486;BME280;6307;46.804;11.580;2022-07-30T01:50:36;-21332.41;;;16.00;100.00
12486;BME280;6307;46.804;11.580;2022-07-30T01:53:07;-21331.50;;;15.97;100.00
12486;BME280;6307;46.804;11.580;2022-07-30T01:55:35;-21326.88;;;15.82;100.00
12486;BME280;6307;46.804;11.580;2022-07-30T01:58:05;-21324.03;;;15.72;100.00
12486;BME280;6307;46.804;11.580;2022-07-30T02:00:37;-21325.84;;;15.78;100.00
12486;BME280;6307;46.804;11.580;2022-07-30T02:03:07;-21327.03;;;15.82;100.00
12486;BME280;6307;46.804;11.580;2022-07-30T02:05:36;-21325.22;;;15.76;100.00
12486;BME280;6307;46.804;11.580;2022-07-30T02:08:35;-21327.19;;;15.83;100.00
12486;BME280;6307;46.804;11.580;2022-07-30T02:11:06;-21324.34;;;15.73;100.00
12486;BME280;6307;46.804;11.580;2022-07-30T02:13:45;-21324.19;;;15.73;100.00
12486;BME280;6307;46.804;11.580;2022-07-30T02:16:26;-21321.06;;;15.62;100.00
12486;BME280;6307;46.804;11.580;2022-07-30T02:19:10;-21320.91;;;15.62;100.00
12486;BME280;6307;46.804;11.580;2022-07-30T02:22:24;-21318.81;;;15.55;100.00
12486;BME280;6307;46.804;11.580;2022-07-30T02:24:43;-21318.97;;;15.55;100.00
12486;BME280;6307;46.804;11.580;2022-07-30T02:27:18;-21317.31;;;15.50;100.00
12486;BME280;6307;46.804;11.580;2022-07-30T02:29:50;-21315.84;;;15.45;100.00
12486;BME280;6307;46.804;11.580;2022-07-30T02:32:21;-21316.44;;;15.47;100.00
12486;BME280;6307;46.804;11.580;2022-07-30T02:34:51;-21316.13;;;15.46;100.00
12486;BME280;6307;46.804;11.580;2022-07-30T02:37:21;-21316.56;;;15.47;100.00
12486;BME280;6307;46.804;11.580;2022-07-30T02:39:52;-21317.16;;;15.49;100.00
12486;BME280;6307;46.804;11.580;2022-07-30T02:42:20;-21316.13;;;15.46;100.00
12486;BME280;6307;46.804;11.580;2022-07-30T02:44:48;-21316.72;;;15.48;100.00
12486;BME280;6307;46.804;11.580;2022-07-30T02:47:16;-21314.78;;;15.41;100.00
12486;BME280;6307;46.804;11.580;2022-07-30T02:49:48;-21312.09;;;15.32;100.00
12486;BME280;6307;46.804;11.580;2022-07-30T02:52:16;-21316.28;;;15.46;100.00
12486;BME280;6307;46.804;11.580;2022-07-30T02:54:44;-21317.91;;;15.52;100.00
12486;BME280;6307;46.804;11.580;2022-07-30T02:57:13;-21316.28;;;15.46;100.00
12486;BME280;6307;46.804;11.580;2022-07-30T02:59:42;-21315.69;;;15.44;100.00
12486;BME280;6307;46.804;11.580;2022-07-30T03:02:11;-21317.47;;;15.50;100.00
12486;BME280;6307;46.804;11.580;2022-07-30T03:04:39;-21318.50;;;15.54;100.00
12486;BME280;6307;46.804;11.580;2022-07-30T03:07:06;-21316.88;;;15.48;100.00
12486;BME280;6307;46.804;11.580;2022-07-30T03:09:34;-21315.97;;;15.45;100.00
12486;BME280;6307;46.804;11.580;2022-07-30T03:12:03;-21316.28;;;15.46;100.00
12486;BME280;6307;46.804;11.580;2022-07-30T03:14:31;-21315.69;;;15.44;100.00
12486;BME280;6307;46.804;11.580;2022-07-30T03:16:58;-21318.66;;;15.54;100.00
12486;BME280;6307;46.804;11.580;2022-07-30T03:19:28;-21315.84;;;15.45;100.00
12486;BME280;6307;46.804;11.580;2022-07-30T03:21:59;-21316.88;;;15.48;100.00
12486;BME280;6307;46.804;11.580;2022-07-30T03:24:29;-21316.56;;;15.47;100.00
12486;BME280;6307;46.804;11.580;2022-07-30T03:26:57;-21314.47;;;15.40;100.00
12486;BME280;6307;46.804;11.580;2022-07-30T03:29:26;-21314.94;;;15.42;100.00
12486;BME280;6307;46.804;11.580;2022-07-30T03:31:54;-21313.13;;;15.36;100.00
12486;BME280;6307;46.804;11.580;2022-07-30T03:34:21;-21316.28;;;15.46;100.00
12486;BME280;6307;46.804;11.580;2022-07-30T03:36:48;-21315.53;;;15.44;100.00
12486;BME280;6307;46.804;11.580;2022-07-30T03:39:15;-21312.84;;;15.35;100.00
12486;BME280;6307;46.804;11.580;2022-07-30T03:41:44;-21311.94;;;15.32;100.00
12486;BME280;6307;46.804;11.580;2022-07-30T03:44:11;-21312.53;;;15.34;100.00
12486;BME280;6307;46.804;11.580;2022-07-30T03:46:39;-21306.88;;;15.15;100.00
12486;BME280;6307;46.804;11.580;2022-07-30T03:49:07;-21310.28;;;15.26;100.00
12486;BME280;6307;46.804;11.580;2022-07-30T03:51:35;-21309.09;;;15.22;100.00
12486;BME280;6307;46.804;11.580;2022-07-30T03:54:02;-21310.44;;;15.27;100.00
12486;BME280;6307;46.804;11.580;2022-07-30T03:56:33;-21310.28;;;15.26;100.00
12486;BME280;6307;46.804;11.580;2022-07-30T03:59:01;-21307.75;;;15.18;100.00
12486;BME280;6307;46.804;11.580;2022-07-30T04:01:27;-21304.91;;;15.08;100.00
12486;BME280;6307;46.804;11.580;2022-07-30T04:03:54;-21309.25;;;15.23;100.00
12486;BME280;6307;46.804;11.580;2022-07-30T04:06:20;-21307.47;;;15.17;100.00
12486;BME280;6307;46.804;11.580;2022-07-30T04:08:46;-21310.00;;;15.25;100.00
12486;BME280;6307;46.804;11.580;2022-07-30T04:11:12;-21305.50;;;15.10;100.00
12486;BME280;6307;46.804;11.580;2022-07-30T04:13:38;-21304.91;;;15.08;100.00
12486;BME280;6307;46.804;11.580;2022-07-30T04:16:09;-21305.06;;;15.09;100.00
12486;BME280;6307;46.804;11.580;2022-07-30T04:18:43;-21305.66;;;15.11;100.00
12486;BME280;6307;46.804;11.580;2022-07-30T04:21:17;-21307.47;;;15.17;100.00
12486;BME280;6307;46.804;11.580;2022-07-30T04:23:46;-21306.41;;;15.13;100.00
12486;BME280;6307;46.804;11.580;2022-07-30T04:26:15;-21308.22;;;15.19;100.00
12486;BME280;6307;46.804;11.580;2022-07-30T04:28:43;-21307.31;;;15.16;100.00
12486;BME280;6307;46.804;11.580;2022-07-30T04:31:10;-21304.63;;;15.07;100.00
12486;BME280;6307;46.804;11.580;2022-07-30T04:33:36;-21308.66;;;15.21;100.00
12486;BME280;6307;46.804;11.580;2022-07-30T04:36:07;-21308.66;;;15.21;100.00
12486;BME280;6307;46.804;11.580;2022-07-30T04:38:33;-21306.13;;;15.12;100.00
12486;BME280;6307;46.804;11.580;2022-07-30T04:41:01;-21310.28;;;15.26;100.00
12486;BME280;6307;46.804;11.580;2022-07-30T04:43:27;-21303.72;;;15.04;100.00
12486;BME280;6307;46.804;11.580;2022-07-30T04:45:53;-21304.63;;;15.07;100.00
12486;BME280;6307;46.804;11.580;2022-07-30T04:48:19;-21307.16;;;15.16;100.00
12486;BME280;6307;46.804;11.580;2022-07-30T04:50:48;-21304.03;;;15.05;100.00
12486;BME280;6307;46.804;11.580;2022-07-30T04:53:18;-21304.91;;;15.08;100.00
12486;BME280;6307;46.804;11.580;2022-07-30T04:55:46;-21304.03;;;15.05;100.00
12486;BME280;6307;46.804;11.580;2022-07-30T04:58:17;-21306.41;;;15.13;100.00
12486;BME280;6307;46.804;11.580;2022-07-30T05:00:47;-21302.22;;;14.99;100.00
12486;BME280;6307;46.804;11.580;2022-07-30T05:03:16;-21303.28;;;15.03;100.00
12486;BME280;6307;46.804;11.580;2022-07-30T05:05:43;-21299.69;;;14.91;100.00
12486;BME280;6307;46.804;11.580;2022-07-30T05:08:11;-21300.00;;;14.92;100.00
12486;BME280;6307;46.804;11.580;2022-07-30T05:10:38;-21302.81;;;15.01;100.00
12486;BME280;6307;46.804;11.580;2022-07-30T05:13:10;-21304.91;;;15.08;100.00
12486;BME280;6307;46.804;11.580;2022-07-30T05:15:37;-21306.25;;;15.13;100.00
12486;BME280;6307;46.804;11.580;2022-07-30T05:18:04;-21303.56;;;15.04;100.00
12486;BME280;6307;46.804;11.580;2022-07-30T05:20:31;-21305.22;;;15.09;100.00
12486;BME280;6307;46.804;11.580;2022-07-30T05:22:57;-21305.81;;;15.11;100.00
12486;BME280;6307;46.804;11.580;2022-07-30T05:25:23;-21306.41;;;15.13;100.00
12486;BME280;6307;46.804;11.580;2022-07-30T05:27:49;-21305.97;;;15.12;100.00
12486;BME280;6307;46.804;11.580;2022-07-30T05:30:16;-21308.66;;;15.21;100.00
12486;BME280;6307;46.804;11.580;2022-07-30T05:32:42;-21306.72;;;15.14;100.00
12486;BME280;6307;46.804;11.580;2022-07-30T05:35:09;-21311.50;;;15.30;100.00
12486;BME280;6307;46.804;11.580;2022-07-30T05:37:35;-21309.09;;;15.22;100.00
12486;BME280;6307;46.804;11.580;2022-07-30T05:40:01;-21311.34;;;15.30;100.00
12486;BME280;6307;46.804;11.580;2022-07-30T05:42:27;-21311.34;;;15.30;100.00
12486;BME280;6307;46.804;11.580;2022-07-30T05:44:53;-21312.25;;;15.33;100.00
12486;BME280;6307;46.804;11.580;2022-07-30T05:47:19;-21315.97;;;15.45;100.00
12486;BME280;6307;46.804;11.580;2022-07-30T05:49:45;-21313.44;;;15.37;100.00
12486;BME280;6307;46.804;11.580;2022-07-30T05:52:12;-21315.69;;;15.44;100.00
12486;BME280;6307;46.804;11.580;2022-07-30T05:54:38;-21310.16;;;15.26;100.00
12486;BME280;6307;46.804;11.580;2022-07-30T05:57:04;-21315.69;;;15.44;100.00
12486;BME280;6307;46.804;11.580;2022-07-30T05:59:30;-21325.84;;;15.78;100.00
12486;BME280;6307;46.804;11.580;2022-07-30T06:01:56;-21357.03;;;16.82;100.00
12486;BME280;6307;46.804;11.580;2022-07-30T06:04:22;-21382.38;;;17.67;100.00
12486;BME280;6307;46.804;11.580;2022-07-30T06:06:49;-21389.69;;;17.92;100.00
12486;BME280;6307;46.804;11.580;2022-07-30T06:09:15;-21413.22;;;18.71;100.00
12486;BME280;6307;46.804;11.580;2022-07-30T06:11:41;-21415.31;;;18.78;100.00
12486;BME280;6307;46.804;11.580;2022-07-30T06:14:08;-21426.19;;;19.14;100.00
12486;BME280;6307;46.804;11.580;2022-07-30T06:16:34;-21439.88;;;19.60;100.00
12486;BME280;6307;46.804;11.580;2022-07-30T06:19:00;-21432.88;;;19.37;100.00
12486;BME280;6307;46.804;11.580;2022-07-30T06:21:26;-21438.22;;;19.55;100.00
12486;BME280;6307;46.804;11.580;2022-07-30T06:23:52;-21447.59;;;19.86;100.00
12486;BME280;6307;46.804;11.580;2022-07-30T06:26:18;-21445.22;;;19.78;100.00
12486;BME280;6307;46.804;11.580;2022-07-30T06:28:45;-21458.31;;;20.22;100.00
12486;BME280;6307;46.804;11.580;2022-07-30T06:31:11;-21478.41;;;20.90;100.00
12486;BME280;6307;46.804;11.580;2022-07-30T06:33:37;-21490.28;;;21.30;100.00
12486;BME280;6307;46.804;11.580;2022-07-30T06:36:04;-21506.03;;;21.83;100.00
12486;BME280;6307;46.804;11.580;2022-07-30T06:38:30;-21498.16;;;21.56;100.00
12486;BME280;6307;46.804;11.580;2022-07-30T06:40:57;-21507.66;;;21.88;100.00
12486;BME280;6307;46.804;11.580;2022-07-30T06:43:23;-21507.22;;;21.87;100.00
12486;BME280;6307;46.804;11.580;2022-07-30T06:45:49;-21514.03;;;22.10;100.00
12486;BME280;6307;46.804;11.580;2022-07-30T06:48:15;-21519.84;;;22.29;100.00
12486;BME280;6307;46.804;11.580;2022-07-30T06:50:42;-21524.00;;;22.43;100.00
12486;BME280;6307;46.804;11.580;2022-07-30T06:53:08;-21537.34;;;22.88;100.00
12486;BME280;6307;46.804;11.580;2022-07-30T06:55:34;-21555.00;;;23.48;100.00
12486;BME280;6307;46.804;11.580;2022-07-30T06:58:00;-21549.06;;;23.28;100.00
12486;BME280;6307;46.804;11.580;2022-07-30T07:00:26;-21541.66;;;23.03;100.00
12486;BME280;6307;46.804;11.580;2022-07-30T07:02:53;-21560.63;;;23.67;100.00
12486;BME280;6307;46.804;11.580;2022-07-30T07:05:19;-21555.13;;;23.48;100.00
12486;BME280;6307;46.804;11.580;2022-07-30T07:07:46;-21561.50;;;23.70;100.00
12486;BME280;6307;46.804;11.580;2022-07-30T07:10:13;-21557.06;;;23.55;100.00
12486;BME280;6307;46.804;11.580;2022-07-30T07:12:39;-21553.81;;;23.44;100.00
12486;BME280;6307;46.804;11.580;2022-07-30T07:15:06;-21570.84;;;24.01;100.00
12486;BME280;6307;46.804;11.580;2022-07-30T07:17:32;-21585.06;;;24.49;100.00
12486;BME280;6307;46.804;11.580;2022-07-30T07:19:59;-21591.75;;;24.72;98.55
12486;BME280;6307;46.804;11.580;2022-07-30T07:22:25;-21581.06;;;24.36;95.92
12486;BME280;6307;46.804;11.580;2022-07-30T07:24:51;-21592.63;;;24.75;93.78
12486;BME280;6307;46.804;11.580;2022-07-30T07:27:17;-21603.59;;;25.12;94.75
12486;BME280;6307;46.804;11.580;2022-07-30T07:29:44;-21637.16;;;26.25;83.00
12486;BME280;6307;46.804;11.580;2022-07-30T07:32:10;-21639.06;;;26.32;83.60
12486;BME280;6307;46.804;11.580;2022-07-30T07:34:36;-21647.94;;;26.62;82.93
12486;BME280;6307;46.804;11.580;2022-07-30T07:37:02;-21625.31;;;25.85;81.15
12486;BME280;6307;46.804;11.580;2022-07-30T07:39:28;-21656.97;;;26.92;83.32
12486;BME280;6307;46.804;11.580;2022-07-30T07:41:54;-21681.63;;;27.75;74.84
12486;BME280;6307;46.804;11.580;2022-07-30T07:44:21;-21710.25;;;28.72;66.42
12486;BME280;6307;46.804;11.580;2022-07-30T07:46:47;-21723.50;;;29.17;57.23
12486;BME280;6307;46.804;11.580;2022-07-30T07:49:13;-21671.72;;;27.42;66.30
12486;BME280;6307;46.804;11.580;2022-07-30T07:51:39;-21642.03;;;26.42;78.81
12486;BME280;6307;46.804;11.580;2022-07-30T07:54:05;-21620.44;;;25.69;79.56
12486;BME280;6307;46.804;11.580;2022-07-30T07:56:31;-21598.25;;;24.94;89.06
12486;BME280;6307;46.804;11.580;2022-07-30T07:58:57;-21580.34;;;24.33;91.76
12486;BME280;6307;46.804;11.580;2022-07-30T08:01:24;-21573.38;;;24.10;89.70
12486;BME280;6307;46.804;11.580;2022-07-30T08:03:50;-21561.22;;;23.69;84.80
12486;BME280;6307;46.804;11.580;2022-07-30T08:06:16;-21571.00;;;24.02;79.71
12486;BME280;6307;46.804;11.580;2022-07-30T08:08:42;-21569.22;;;23.96;79.25
12486;BME280;6307;46.804;11.580;2022-07-30T08:11:08;-21569.06;;;23.95;80.82
12486;BME280;6307;46.804;11.580;2022-07-30T08:13:34;-21566.56;;;23.87;76.10
12486;BME280;6307;46.804;11.580;2022-07-30T08:16:01;-21548.75;;;23.27;60.06
12486;BME280;6307;46.804;11.580;2022-07-30T08:18:27;-21555.44;;;23.49;77.82
12486;BME280;6307;46.804;11.580;2022-07-30T08:20:53;-21564.78;;;23.81;79.79
12486;BME280;6307;46.804;11.580;2022-07-30T08:23:19;-21560.78;;;23.67;73.45
12486;BME280;6307;46.804;11.580;2022-07-30T08:25:47;-21566.84;;;23.88;71.40
12486;BME280;6307;46.804;11.580;2022-07-30T08:28:13;-21569.06;;;23.95;68.91
12486;BME280;6307;46.804;11.580;2022-07-30T08:30:39;-21555.28;;;23.49;71.85
12486;BME280;6307;46.804;11.580;2022-07-30T08:33:05;-21571.31;;;24.03;72.81
12486;BME280;6307;46.804;11.580;2022-07-30T08:35:32;-21570.41;;;24.00;75.95
12486;BME280;6307;46.804;11.580;2022-07-30T08:37:58;-21572.94;;;24.08;80.52
12486;BME280;6307;46.804;11.580;2022-07-30T08:40:25;-21564.47;;;23.80;66.42
12486;BME280;6307;46.804;11.580;2022-07-30T08:42:51;-21570.25;;;23.99;67.15
12486;BME280;6307;46.804;11.580;2022-07-30T08:45:18;-21566.72;;;23.87;70.59
12486;BME280;6307;46.804;11.580;2022-07-30T08:47:46;-21566.72;;;23.87;68.93
12486;BME280;6307;46.804;11.580;2022-07-30T08:50:15;-21572.78;;;24.08;72.74
12486;BME280;6307;46.804;11.580;2022-07-30T08:52:41;-21564.47;;;23.80;63.18
12486;BME280;6307;46.804;11.580;2022-07-30T08:55:08;-21561.06;;;23.68;66.09
12486;BME280;6307;46.804;11.580;2022-07-30T08:57:35;-21606.97;;;25.23;55.22
12486;BME280;6307;46.804;11.580;2022-07-30T09:00:04;-21640.72;;;26.37;53.68
12486;BME280;6307;46.804;11.580;2022-07-30T09:02:31;-21659.31;;;27.00;50.34
12486;BME280;6307;46.804;11.580;2022-07-30T09:04:58;-21644.84;;;26.51;49.07
12486;BME280;6307;46.804;11.580;2022-07-30T09:07:24;-21661.53;;;27.08;46.57
12486;BME280;6307;46.804;11.580;2022-07-30T09:09:51;-21660.06;;;27.02;44.22
12486;BME280;6307;46.804;11.580;2022-07-30T09:12:44;-21677.63;;;27.62;40.14
12486;BME280;6307;46.804;11.580;2022-07-30T09:15:12;-21703.59;;;28.50;44.26
12486;BME280;6307;46.804;11.580;2022-07-30T09:20:21;-21690.03;;;28.04;37.80
12486;BME280;6307;46.804;11.580;2022-07-30T09:22:51;-21695.50;;;28.22;40.40
12486;BME280;6307;46.804;11.580;2022-07-30T09:25:37;-21710.38;;;28.73;35.40
12486;BME280;6307;46.804;11.580;2022-07-30T09:28:06;-21723.38;;;29.17;36.09
12486;BME280;6307;46.804;11.580;2022-07-30T09:33:33;-21734.13;;;29.53;36.29
12486;BME280;6307;46.804;11.580;2022-07-30T09:36:04;-21721.44;;;29.10;37.36
12486;BME280;6307;46.804;11.580;2022-07-30T09:38:50;-21692.84;;;28.13;38.85
12486;BME280;6307;46.804;11.580;2022-07-30T09:41:35;-21661.38;;;27.07;38.03
12486;BME280;6307;46.804;11.580;2022-07-30T09:44:03;-21680.75;;;27.72;42.80
12486;BME280;6307;46.804;11.580;2022-07-30T09:46:40;-21704.63;;;28.53;37.44
12486;BME280;6307;46.804;11.580;2022-07-30T09:49:19;-21719.38;;;29.03;36.98
12486;BME280;6307;46.804;11.580;2022-07-30T09:51:49;-21756.78;;;30.30;36.30
12486;BME280;6307;46.804;11.580;2022-07-30T09:54:16;-21743.97;;;29.87;34.21
12486;BME280;6307;46.804;11.580;2022-07-30T09:56:43;-21734.13;;;29.53;34.49
12486;BME280;6307;46.804;11.580;2022-07-30T09:59:29;-21731.59;;;29.45;34.88
12486;BME280;6307;46.804;11.580;2022-07-30T10:01:57;-21761.19;;;30.45;33.36
12486;BME280;6307;46.804;11.580;2022-07-30T10:04:25;-21756.50;;;30.29;33.85
12486;BME280;6307;46.804;11.580;2022-07-30T10:06:53;-21750.59;;;30.09;35.95
12486;BME280;6307;46.804;11.580;2022-07-30T10:09:34;-21718.19;;;28.99;38.06
12486;BME280;6307;46.804;11.580;2022-07-30T10:12:03;-21732.63;;;29.48;33.57
12486;BME280;6307;46.804;11.580;2022-07-30T10:14:35;-21749.72;;;30.06;34.59
12486;BME280;6307;46.804;11.580;2022-07-30T10:17:03;-21729.84;;;29.39;33.40
12486;BME280;6307;46.804;11.580;2022-07-30T10:19:31;-21690.63;;;28.06;34.42
12486;BME280;6307;46.804;11.580;2022-07-30T10:21:58;-21672.63;;;27.45;34.09
12486;BME280;6307;46.804;11.580;2022-07-30T10:24:25;-21704.34;;;28.52;36.67
12486;BME280;6307;46.804;11.580;2022-07-30T10:26:53;-21727.19;;;29.30;35.59
12486;BME280;6307;46.804;11.580;2022-07-30T10:29:21;-21735.59;;;29.58;36.53
12486;BME280;6307;46.804;11.580;2022-07-30T10:31:49;-21753.84;;;30.20;31.86
12486;BME280;6307;46.804;11.580;2022-07-30T10:34:17;-21744.56;;;29.89;30.35
12486;BME280;6307;46.804;11.580;2022-07-30T10:36:51;-21748.69;;;30.03;30.48
12486;BME280;6307;46.804;11.580;2022-07-30T10:39:27;-21775.31;;;30.93;31.57
12486;BME280;6307;46.804;11.580;2022-07-30T10:48:11;-21780.03;;;31.09;28.27
12486;BME280;6307;46.804;11.580;2022-07-30T10:50:55;-21795.31;;;31.61;28.51
12486;BME280;6307;46.804;11.580;2022-07-30T10:53:43;-21783.28;;;31.20;28.68
12486;BME280;6307;46.804;11.580;2022-07-30T10:58:59;-21757.66;;;30.33;30.12
12486;BME280;6307;46.804;11.580;2022-07-30T11:04:22;-21734.41;;;29.54;29.89
12486;BME280;6307;46.804;11.580;2022-07-30T11:06:51;-21744.72;;;29.89;32.25
12486;BME280;6307;46.804;11.580;2022-07-30T11:09:41;-21753.69;;;30.20;29.73
12486;BME280;6307;46.804;11.580;2022-07-30T11:12:08;-21765.47;;;30.60;30.60
12486;BME280;6307;46.804;11.580;2022-07-30T11:17:17;-21763.56;;;30.53;28.75
12486;BME280;6307;46.804;11.580;2022-07-30T11:20:10;-21745.31;;;29.91;30.24
12486;BME280;6307;46.804;11.580;2022-07-30T11:22:40;-21765.19;;;30.59;29.78
12486;BME280;6307;46.804;11.580;2022-07-30T11:27:48;-21775.78;;;30.95;28.55
12486;BME280;6307;46.804;11.580;2022-07-30T11:32:42;-21770.31;;;30.76;28.95
12486;BME280;6307;46.804;11.580;2022-07-30T11:35:29;-21774.44;;;30.90;27.55
12486;BME280;6307;46.804;11.580;2022-07-30T11:38:14;-21737.34;;;29.64;29.68
12486;BME280;6307;46.804;11.580;2022-07-30T11:46:15;-21762.38;;;30.49;27.84
12486;BME280;6307;46.804;11.580;2022-07-30T11:48:59;-21768.41;;;30.70;27.26
12486;BME280;6307;46.804;11.580;2022-07-30T11:51:43;-21742.66;;;29.82;28.04
12486;BME280;6307;46.804;11.580;2022-07-30T11:54:10;-21734.84;;;29.56;28.49
12486;BME280;6307;46.804;11.580;2022-07-30T11:56:55;-21754.44;;;30.22;29.32
12486;BME280;6307;46.804;11.580;2022-07-30T11:59:22;-21766.19;;;30.62;28.25
12486;BME280;6307;46.804;11.580;2022-07-30T12:01:50;-21760.91;;;30.44;28.21
12486;BME280;6307;46.804;11.580;2022-07-30T12:04:19;-21742.22;;;29.81;26.32
12486;BME280;6307;46.804;11.580;2022-07-30T12:06:47;-21741.78;;;29.79;29.47
12486;BME280;6307;46.804;11.580;2022-07-30T12:09:24;-21744.72;;;29.89;27.71
12486;BME280;6307;46.804;11.580;2022-07-30T12:11:55;-21750.00;;;30.07;29.81
12486;BME280;6307;46.804;11.580;2022-07-30T12:14:22;-21776.06;;;30.96;27.42
12486;BME280;6307;46.804;11.580;2022-07-30T12:16:50;-21751.66;;;30.13;28.17
12486;BME280;6307;46.804;11.580;2022-07-30T12:19:17;-21749.56;;;30.06;28.37
12486;BME280;6307;46.804;11.580;2022-07-30T12:21:43;-21753.25;;;30.18;28.34
12486;BME280;6307;46.804;11.580;2022-07-30T12:24:10;-21747.66;;;29.99;28.97
12486;BME280;6307;46.804;11.580;2022-07-30T12:26:36;-21761.50;;;30.46;27.98
12486;BME280;6307;46.804;11.580;2022-07-30T12:29:05;-21778.56;;;31.04;27.01
12486;BME280;6307;46.804;11.580;2022-07-30T12:31:35;-21761.94;;;30.48;26.66
12486;BME280;6307;46.804;11.580;2022-07-30T12:34:03;-21767.53;;;30.67;27.23
12486;BME280;6307;46.804;11.580;2022-07-30T12:36:30;-21780.03;;;31.09;26.65
12486;BME280;6307;46.804;11.580;2022-07-30T12:39:00;-21777.97;;;31.02;25.85
12486;BME280;6307;46.804;11.580;2022-07-30T12:41:48;-21786.81;;;31.32;26.80
12486;BME280;6307;46.804;11.580;2022-07-30T12:44:39;-21770.31;;;30.76;26.01
12486;BME280;6307;46.804;11.580;2022-07-30T12:47:22;-21727.94;;;29.32;27.21
12486;BME280;6307;46.804;11.580;2022-07-30T12:49:51;-21728.06;;;29.33;28.92
12486;BME280;6307;46.804;11.580;2022-07-30T12:52:32;-21746.94;;;29.97;28.57
12486;BME280;6307;46.804;11.580;2022-07-30T12:57:56;-21753.09;;;30.18;26.33
12486;BME280;6307;46.804;11.580;2022-07-30T13:00:29;-21753.56;;;30.19;26.55
12486;BME280;6307;46.804;11.580;2022-07-30T13:03:25;-21782.69;;;31.18;26.95
12486;BME280;6307;46.804;11.580;2022-07-30T13:05:56;-21782.25;;;31.17;25.89
12486;BME280;6307;46.804;11.580;2022-07-30T13:08:43;-21778.41;;;31.04;26.39
12486;BME280;6307;46.804;11.580;2022-07-30T13:11:41;-21760.91;;;30.44;26.76
12486;BME280;6307;46.804;11.580;2022-07-30T13:14:10;-21731.31;;;29.44;27.71
12486;BME280;6307;46.804;11.580;2022-07-30T13:16:39;-21716.00;;;28.92;30.83
12486;BME280;6307;46.804;11.580;2022-07-30T13:19:06;-21698.16;;;28.31;32.10
12486;BME280;6307;46.804;11.580;2022-07-30T13:21:36;-21687.22;;;27.94;33.12
12486;BME280;6307;46.804;11.580;2022-07-30T13:24:03;-21674.81;;;27.52;34.71
12486;BME280;6307;46.804;11.580;2022-07-30T13:26:29;-21663.16;;;27.13;32.58
12486;BME280;6307;46.804;11.580;2022-07-30T13:28:57;-21700.81;;;28.40;31.40
12486;BME280;6307;46.804;11.580;2022-07-30T13:31:24;-21740.44;;;29.75;29.91
12486;BME280;6307;46.804;11.580;2022-07-30T13:33:50;-21736.63;;;29.62;29.51
12486;BME280;6307;46.804;11.580;2022-07-30T13:36:17;-21747.38;;;29.98;28.97